sensor_id;sensor_type;location;lat;lon;timestamp;temperature;humidity
42421;DHT22;28063;48.140;11.588;2022-07-21T00:01:16;21.80;93.40
42421;DHT22;28063;48.140;11.588;2022-07-21T00:03:41;21.80;95.10
42421;DHT22;28063;48.140;11.588;2022-07-21T00:06:07;21.90;95.90
42421;DHT22;28063;48.140;11.588;2022-07-21T00:08:33;21.90;96.80
42421;DHT22;28063;48.140;11.588;2022-07-21T00:11:00;22.00;97.20
42421;DHT22;28063;48.140;11.588;2022-07-21T00:13:26;22.10;98.00
42421;DHT22;28063;48.140;11.588;2022-07-21T00:15:51;22.10;98.40
42421;DHT22;28063;48.140;11.588;2022-07-21T00:18:18;22.10;99.00
42421;DHT22;28063;48.140;11.588;2022-07-21T00:20:44;22.10;99.30
42421;DHT22;28063;48.140;11.588;2022-07-21T00:23:10;22.10;99.70
42421;DHT22;28063;48.140;11.588;2022-07-21T00:25:35;22.10;99.80
42421;DHT22;28063;48.140;11.588;2022-07-21T00:28:03;22.00;99.80
42421;DHT22;28063;48.140;11.588;2022-07-21T00:30:29;21.90;99.90
42421;DHT22;28063;48.140;11.588;2022-07-21T00:32:55;21.90;99.90
42421;DHT22;28063;48.140;11.588;2022-07-21T00:35:20;21.90;99.90
42421;DHT22;28063;48.140;11.588;2022-07-21T00:37:46;21.90;99.90
42421;DHT22;28063;48.140;11.588;2022-07-21T00:40:12;22.00;99.90
42421;DHT22;28063;48.140;11.588;2022-07-21T00:42:39;22.00;99.90
42421;DHT22;28063;48.140;11.588;2022-07-21T00:45:06;22.10;99.90
42421;DHT22;28063;48.140;11.588;2022-07-21T00:47:33;22.10;99.90
42421;DHT22;28063;48.140;11.588;2022-07-21T00:50:00;22.10;99.90
42421;DHT22;28063;48.140;11.588;2022-07-21T00:52:26;22.10;99.90
42421;DHT22;28063;48.140;11.588;2022-07-21T00:54:52;22.20;99.90
42421;DHT22;28063;48.140;11.588;2022-07-21T00:57:18;22.20;99.90
42421;DHT22;28063;48.140;11.588;2022-07-21T00:59:45;22.20;99.70
42421;DHT22;28063;48.140;11.588;2022-07-21T01:02:11;22.30;99.00
42421;DHT22;28063;48.140;11.588;2022-07-21T01:04:37;22.30;98.50
42421;DHT22;28063;48.140;11.588;2022-07-21T01:07:05;22.30;98.30
42421;DHT22;28063;48.140;11.588;2022-07-21T01:09:32;22.30;98.50
42421;DHT22;28063;48.140;11.588;2022-07-21T01:11:58;22.30;98.20
42421;DHT22;28063;48.140;11.588;2022-07-21T01:14:24;22.30;98.10
42421;DHT22;28063;48.140;11.588;2022-07-21T01:16:50;22.30;97.90
42421;DHT22;28063;48.140;11.588;2022-07-21T01:19:16;22.30;98.20
42421;DHT22;28063;48.140;11.588;2022-07-21T01:21:44;22.30;99.20
42421;DHT22;28063;48.140;11.588;2022-07-21T01:24:10;22.20;99.90
42421;DHT22;28063;48.140;11.588;2022-07-21T01:29:06;22.10;99.90
42421;DHT22;28063;48.140;11.588;2022-07-21T01:31:34;22.00;99.90
42421;DHT22;28063;48.140;11.588;2022-07-21T01:33:59;22.00;99.90
42421;DHT22;28063;48.140;11.588;2022-07-21T01:36:25;21.90;99.90
42421;DHT22;28063;48.140;11.588;2022-07-21T01:38:51;21.80;99.90
42421;DHT22;28063;48.140;11.588;2022-07-21T01:41:35;21.80;99.90
42421;DHT22;28063;48.140;11.588;2022-07-21T01:44:06;21.80;99.90
42421;DHT22;28063;48.140;11.588;2022-07-21T01:46:38;21.90;99.90
42421;DHT22;28063;48.140;11.588;2022-07-21T01:49:04;21.90;99.90
42421;DHT22;28063;48.140;11.588;2022-07-21T01:51:30;21.90;99.90
42421;DHT22;28063;48.140;11.588;2022-07-21T01:53:56;21.90;99.90
42421;DHT22;28063;48.140;11.588;2022-07-21T01:56:23;22.00;99.90
42421;DHT22;28063;48.140;11.588;2022-07-21T01:58:51;22.00;99.90
42421;DHT22;28063;48.140;11.588;2022-07-21T02:01:18;22.10;99.90
42421;DHT22;28063;48.140;11.588;2022-07-21T02:03:45;22.10;99.90
42421;DHT22;28063;48.140;11.588;2022-07-21T02:06:12;22.10;99.90
42421;DHT22;28063;48.140;11.588;2022-07-21T02:08:38;22.10;99.90
42421;DHT22;28063;48.140;11.588;2022-07-21T02:11:05;22.20;99.90
42421;DHT22;28063;48.140;11.588;2022-07-21T02:13:31;22.20;99.90
42421;DHT22;28063;48.140;11.588;2022-07-21T02:15:56;22.20;99.90
42421;DHT22;28063;48.140;11.588;2022-07-21T02:18:22;22.20;99.90
42421;DHT22;28063;48.140;11.588;2022-07-21T02:20:48;22.30;99.90
42421;DHT22;28063;48.140;11.588;2022-07-21T02:23:18;22.30;99.90
42421;DHT22;28063;48.140;11.588;2022-07-21T02:25:45;22.40;99.90
42421;DHT22;28063;48.140;11.588;2022-07-21T02:28:11;22.40;99.90
42421;DHT22;28063;48.140;11.588;2022-07-21T02:30:37;22.40;99.90
42421;DHT22;28063;48.140;11.588;2022-07-21T02:33:03;22.40;99.90
42421;DHT22;28063;48.140;11.588;2022-07-21T02:35:29;22.40;99.90
42421;DHT22;28063;48.140;11.588;2022-07-21T02:37:55;22.30;99.90
42421;DHT22;28063;48.140;11.588;2022-07-21T02:40:21;22.30;99.90
42421;DHT22;28063;48.140;11.588;2022-07-21T02:42:46;22.30;99.90
42421;DHT22;28063;48.140;11.588;2022-07-21T02:45:12;22.30;99.90
42421;DHT22;28063;48.140;11.588;2022-07-21T02:50:13;22.30;99.90
42421;DHT22;28063;48.140;11.588;2022-07-21T02:52:40;22.30;99.90
42421;DHT22;28063;48.140;11.588;2022-07-21T02:55:06;22.30;99.90
42421;DHT22;28063;48.140;11.588;2022-07-21T02:57:31;22.30;99.90
42421;DHT22;28063;48.140;11.588;2022-07-21T02:59:57;22.30;99.20
42421;DHT22;28063;48.140;11.588;2022-07-21T03:02:23;22.20;99.10
42421;DHT22;28063;48.140;11.588;2022-07-21T03:04:48;22.10;99.20
42421;DHT22;28063;48.140;11.588;2022-07-21T03:07:14;22.10;99.40
42421;DHT22;28063;48.140;11.588;2022-07-21T03:09:40;22.00;99.40
42421;DHT22;28063;48.140;11.588;2022-07-21T03:12:05;22.00;99.30
42421;DHT22;28063;48.140;11.588;2022-07-21T03:14:32;22.00;99.60
42421;DHT22;28063;48.140;11.588;2022-07-21T03:16:58;22.10;99.80
42421;DHT22;28063;48.140;11.588;2022-07-21T03:19:26;22.10;99.90
42421;DHT22;28063;48.140;11.588;2022-07-21T03:21:51;22.10;99.90
42421;DHT22;28063;48.140;11.588;2022-07-21T03:24:17;22.10;99.90
42421;DHT22;28063;48.140;11.588;2022-07-21T03:26:43;22.00;99.90
42421;DHT22;28063;48.140;11.588;2022-07-21T03:29:09;22.00;99.90
42421;DHT22;28063;48.140;11.588;2022-07-21T03:31:39;22.10;99.90
42421;DHT22;28063;48.140;11.588;2022-07-21T03:34:04;22.00;99.90
42421;DHT22;28063;48.140;11.588;2022-07-21T03:36:30;22.10;99.90
42421;DHT22;28063;48.140;11.588;2022-07-21T03:38:56;22.00;99.90
42421;DHT22;28063;48.140;11.588;2022-07-21T03:41:21;22.00;99.90
42421;DHT22;28063;48.140;11.588;2022-07-21T03:43:47;22.00;99.90
42421;DHT22;28063;48.140;11.588;2022-07-21T03:46:26;22.00;99.90
42421;DHT22;28063;48.140;11.588;2022-07-21T03:48:52;22.00;99.90
42421;DHT22;28063;48.140;11.588;2022-07-21T03:51:20;22.00;99.90
42421;DHT22;28063;48.140;11.588;2022-07-21T03:53:47;22.00;99.90
42421;DHT22;28063;48.140;11.588;2022-07-21T03:56:13;22.00;99.90
42421;DHT22;28063;48.140;11.588;2022-07-21T03:58:39;22.10;99.90
42421;DHT22;28063;48.140;11.588;2022-07-21T04:01:05;22.10;99.90
42421;DHT22;28063;48.140;11.588;2022-07-21T04:03:50;22.20;99.90
42421;DHT22;28063;48.140;11.588;2022-07-21T04:06:15;22.20;99.90
42421;DHT22;28063;48.140;11.588;2022-07-21T04:08:41;22.20;99.90
42421;DHT22;28063;48.140;11.588;2022-07-21T04:11:07;22.20;99.90
42421;DHT22;28063;48.140;11.588;2022-07-21T04:13:33;22.20;99.90
42421;DHT22;28063;48.140;11.588;2022-07-21T04:15:58;22.10;99.90
42421;DHT22;28063;48.140;11.588;2022-07-21T04:18:24;22.10;99.90
42421;DHT22;28063;48.140;11.588;2022-07-21T04:20:50;22.10;99.90
42421;DHT22;28063;48.140;11.588;2022-07-21T04:23:15;22.10;99.90
42421;DHT22;28063;48.140;11.588;2022-07-21T04:25:41;22.10;99.90
42421;DHT22;28063;48.140;11.588;2022-07-21T04:28:07;22.00;99.80
42421;DHT22;28063;48.140;11.588;2022-07-21T04:30:33;22.00;99.90
42421;DHT22;28063;48.140;11.588;2022-07-21T04:33:03;22.00;99.60
42421;DHT22;28063;48.140;11.588;2022-07-21T04:35:34;21.90;99.80
42421;DHT22;28063;48.140;11.588;2022-07-21T04:38:01;21.90;99.60
42421;DHT22;28063;48.140;11.588;2022-07-21T04:40:27;21.90;99.30
42421;DHT22;28063;48.140;11.588;2022-07-21T04:42:52;21.90;99.20
42421;DHT22;28063;48.140;11.588;2022-07-21T04:45:18;21.90;99.20
42421;DHT22;28063;48.140;11.588;2022-07-21T04:47:49;21.90;99.10
42421;DHT22;28063;48.140;11.588;2022-07-21T04:50:17;21.90;98.90
42421;DHT22;28063;48.140;11.588;2022-07-21T04:52:43;21.90;98.60
42421;DHT22;28063;48.140;11.588;2022-07-21T04:55:09;21.90;98.60
42421;DHT22;28063;48.140;11.588;2022-07-21T04:57:45;21.90;98.70
42421;DHT22;28063;48.140;11.588;2022-07-21T05:00:13;21.90;98.60
42421;DHT22;28063;48.140;11.588;2022-07-21T05:02:52;21.90;98.30
42421;DHT22;28063;48.140;11.588;2022-07-21T05:05:19;21.90;98.30
42421;DHT22;28063;48.140;11.588;2022-07-21T05:07:44;21.90;98.30
42421;DHT22;28063;48.140;11.588;2022-07-21T05:10:13;21.90;98.50
42421;DHT22;28063;48.140;11.588;2022-07-21T05:12:39;22.00;98.40
42421;DHT22;28063;48.140;11.588;2022-07-21T05:15:06;22.00;98.00
42421;DHT22;28063;48.140;11.588;2022-07-21T05:17:36;22.10;97.80
42421;DHT22;28063;48.140;11.588;2022-07-21T05:20:18;22.10;97.80
42421;DHT22;28063;48.140;11.588;2022-07-21T05:22:43;22.10;97.60
42421;DHT22;28063;48.140;11.588;2022-07-21T05:25:09;22.10;97.50
42421;DHT22;28063;48.140;11.588;2022-07-21T05:27:36;22.00;97.70
42421;DHT22;28063;48.140;11.588;2022-07-21T05:30:09;22.00;97.90
42421;DHT22;28063;48.140;11.588;2022-07-21T05:32:37;22.00;97.80
42421;DHT22;28063;48.140;11.588;2022-07-21T05:35:22;22.10;98.00
42421;DHT22;28063;48.140;11.588;2022-07-21T05:37:47;22.10;97.90
42421;DHT22;28063;48.140;11.588;2022-07-21T05:40:16;22.20;97.80
42421;DHT22;28063;48.140;11.588;2022-07-21T05:42:42;22.30;97.10
42421;DHT22;28063;48.140;11.588;2022-07-21T05:45:11;22.40;97.00
42421;DHT22;28063;48.140;11.588;2022-07-21T05:47:37;22.60;97.00
42421;DHT22;28063;48.140;11.588;2022-07-21T05:50:17;23.00;96.20
42421;DHT22;28063;48.140;11.588;2022-07-21T05:53:10;23.40;93.90
42421;DHT22;28063;48.140;11.588;2022-07-21T05:55:36;23.50;93.50
42421;DHT22;28063;48.140;11.588;2022-07-21T05:58:02;23.60;93.40
42421;DHT22;28063;48.140;11.588;2022-07-21T06:00:28;23.60;92.80
42421;DHT22;28063;48.140;11.588;2022-07-21T06:02:53;23.70;92.40
42421;DHT22;28063;48.140;11.588;2022-07-21T06:05:19;23.60;92.50
42421;DHT22;28063;48.140;11.588;2022-07-21T06:07:45;23.40;92.60
42421;DHT22;28063;48.140;11.588;2022-07-21T06:10:11;23.30;92.50
42421;DHT22;28063;48.140;11.588;2022-07-21T06:12:37;23.40;92.80
42421;DHT22;28063;48.140;11.588;2022-07-21T06:15:06;23.40;92.80
42421;DHT22;28063;48.140;11.588;2022-07-21T06:17:45;23.30;92.70
42421;DHT22;28063;48.140;11.588;2022-07-21T06:20:26;23.30;92.60
42421;DHT22;28063;48.140;11.588;2022-07-21T06:23:22;23.20;92.70
42421;DHT22;28063;48.140;11.588;2022-07-21T06:25:48;23.30;93.00
42421;DHT22;28063;48.140;11.588;2022-07-21T06:28:14;23.30;93.00
42421;DHT22;28063;48.140;11.588;2022-07-21T06:30:40;23.30;93.20
42421;DHT22;28063;48.140;11.588;2022-07-21T06:33:05;23.40;93.10
42421;DHT22;28063;48.140;11.588;2022-07-21T06:35:31;23.50;92.70
42421;DHT22;28063;48.140;11.588;2022-07-21T06:37:57;23.60;92.30
42421;DHT22;28063;48.140;11.588;2022-07-21T06:40:23;23.60;92.30
42421;DHT22;28063;48.140;11.588;2022-07-21T06:42:48;23.50;92.80
42421;DHT22;28063;48.140;11.588;2022-07-21T06:45:14;23.50;93.10
42421;DHT22;28063;48.140;11.588;2022-07-21T06:47:40;23.40;93.40
42421;DHT22;28063;48.140;11.588;2022-07-21T06:50:07;23.30;93.90
42421;DHT22;28063;48.140;11.588;2022-07-21T06:52:34;23.40;94.20
42421;DHT22;28063;48.140;11.588;2022-07-21T06:55:06;23.50;93.60
42421;DHT22;28063;48.140;11.588;2022-07-21T06:57:36;23.50;93.30
42421;DHT22;28063;48.140;11.588;2022-07-21T07:00:06;23.60;93.60
42421;DHT22;28063;48.140;11.588;2022-07-21T07:02:32;23.70;92.90
42421;DHT22;28063;48.140;11.588;2022-07-21T07:04:58;23.90;92.80
42421;DHT22;28063;48.140;11.588;2022-07-21T07:07:23;24.00;92.40
42421;DHT22;28063;48.140;11.588;2022-07-21T07:09:49;24.20;92.10
42421;DHT22;28063;48.140;11.588;2022-07-21T07:12:15;24.30;91.40
42421;DHT22;28063;48.140;11.588;2022-07-21T07:14:40;24.30;91.20
42421;DHT22;28063;48.140;11.588;2022-07-21T07:17:06;24.20;91.50
42421;DHT22;28063;48.140;11.588;2022-07-21T07:19:32;24.10;91.90
42421;DHT22;28063;48.140;11.588;2022-07-21T07:21:58;24.00;91.90
42421;DHT22;28063;48.140;11.588;2022-07-21T07:24:25;24.00;91.60
42421;DHT22;28063;48.140;11.588;2022-07-21T07:26:54;24.00;91.40
42421;DHT22;28063;48.140;11.588;2022-07-21T07:29:19;24.00;91.40
42421;DHT22;28063;48.140;11.588;2022-07-21T07:31:45;24.00;91.60
42421;DHT22;28063;48.140;11.588;2022-07-21T07:34:11;24.00;91.30
42421;DHT22;28063;48.140;11.588;2022-07-21T07:37:01;24.00;91.40
42421;DHT22;28063;48.140;11.588;2022-07-21T07:39:27;24.00;91.40
42421;DHT22;28063;48.140;11.588;2022-07-21T07:41:55;24.10;91.00
42421;DHT22;28063;48.140;11.588;2022-07-21T07:44:22;24.20;90.20
42421;DHT22;28063;48.140;11.588;2022-07-21T07:46:48;24.20;89.60
42421;DHT22;28063;48.140;11.588;2022-07-21T07:49:14;24.10;90.00
42421;DHT22;28063;48.140;11.588;2022-07-21T07:51:40;24.00;90.40
42421;DHT22;28063;48.140;11.588;2022-07-21T07:54:06;24.00;90.30
42421;DHT22;28063;48.140;11.588;2022-07-21T07:56:32;24.00;90.20
42421;DHT22;28063;48.140;11.588;2022-07-21T07:58:58;24.00;90.10
42421;DHT22;28063;48.140;11.588;2022-07-21T08:01:23;23.90;90.30
42421;DHT22;28063;48.140;11.588;2022-07-21T08:03:49;24.00;90.00
42421;DHT22;28063;48.140;11.588;2022-07-21T08:06:15;23.90;90.10
42421;DHT22;28063;48.140;11.588;2022-07-21T08:08:41;23.80;90.00
42421;DHT22;28063;48.140;11.588;2022-07-21T08:13:35;23.80;90.10
42421;DHT22;28063;48.140;11.588;2022-07-21T08:16:00;23.80;90.50
42421;DHT22;28063;48.140;11.588;2022-07-21T08:18:26;23.90;90.50
42421;DHT22;28063;48.140;11.588;2022-07-21T08:20:53;24.00;90.20
42421;DHT22;28063;48.140;11.588;2022-07-21T08:23:18;24.20;88.90
42421;DHT22;28063;48.140;11.588;2022-07-21T08:25:44;24.20;89.10
42421;DHT22;28063;48.140;11.588;2022-07-21T08:28:10;24.30;88.50
42421;DHT22;28063;48.140;11.588;2022-07-21T08:30:37;24.40;87.80
42421;DHT22;28063;48.140;11.588;2022-07-21T08:33:21;24.60;87.40
42421;DHT22;28063;48.140;11.588;2022-07-21T08:35:47;24.80;86.80
42421;DHT22;28063;48.140;11.588;2022-07-21T08:38:12;24.90;85.00
42421;DHT22;28063;48.140;11.588;2022-07-21T08:40:41;24.90;85.40
42421;DHT22;28063;48.140;11.588;2022-07-21T08:43:07;24.90;84.40
42421;DHT22;28063;48.140;11.588;2022-07-21T08:45:35;24.90;85.80
42421;DHT22;28063;48.140;11.588;2022-07-21T08:48:01;24.70;84.20
42421;DHT22;28063;48.140;11.588;2022-07-21T08:50:32;24.40;86.20
42421;DHT22;28063;48.140;11.588;2022-07-21T08:52:59;24.30;86.80
42421;DHT22;28063;48.140;11.588;2022-07-21T08:55:24;24.10;88.20
42421;DHT22;28063;48.140;11.588;2022-07-21T08:57:50;23.90;89.40
42421;DHT22;28063;48.140;11.588;2022-07-21T09:00:16;23.90;89.20
42421;DHT22;28063;48.140;11.588;2022-07-21T09:02:42;23.70;90.00
42421;DHT22;28063;48.140;11.588;2022-07-21T09:05:09;23.60;90.30
42421;DHT22;28063;48.140;11.588;2022-07-21T09:07:49;23.60;90.60
42421;DHT22;28063;48.140;11.588;2022-07-21T09:10:15;23.50;90.70
42421;DHT22;28063;48.140;11.588;2022-07-21T09:13:10;23.50;91.10
42421;DHT22;28063;48.140;11.588;2022-07-21T09:15:35;23.30;91.80
42421;DHT22;28063;48.140;11.588;2022-07-21T09:18:09;23.20;92.20
42421;DHT22;28063;48.140;11.588;2022-07-21T09:20:36;23.10;92.60
42421;DHT22;28063;48.140;11.588;2022-07-21T09:23:03;22.90;93.20
42421;DHT22;28063;48.140;11.588;2022-07-21T09:25:41;22.90;93.60
42421;DHT22;28063;48.140;11.588;2022-07-21T09:28:18;22.80;93.30
42421;DHT22;28063;48.140;11.588;2022-07-21T09:30:49;22.80;93.40
42421;DHT22;28063;48.140;11.588;2022-07-21T09:33:23;22.90;93.50
42421;DHT22;28063;48.140;11.588;2022-07-21T09:36:04;23.00;92.90
42421;DHT22;28063;48.140;11.588;2022-07-21T09:38:33;23.00;92.90
42421;DHT22;28063;48.140;11.588;2022-07-21T09:41:08;23.00;92.80
42421;DHT22;28063;48.140;11.588;2022-07-21T09:43:42;23.00;92.80
42421;DHT22;28063;48.140;11.588;2022-07-21T09:46:12;22.90;93.10
42421;DHT22;28063;48.140;11.588;2022-07-21T09:48:40;22.90;93.30
42421;DHT22;28063;48.140;11.588;2022-07-21T09:51:32;22.90;93.30
42421;DHT22;28063;48.140;11.588;2022-07-21T09:54:02;22.80;93.60
42421;DHT22;28063;48.140;11.588;2022-07-21T09:56:31;22.70;94.30
42421;DHT22;28063;48.140;11.588;2022-07-21T09:58:58;22.60;94.20
42421;DHT22;28063;48.140;11.588;2022-07-21T10:01:25;22.60;94.80
42421;DHT22;28063;48.140;11.588;2022-07-21T10:03:51;22.70;94.60
42421;DHT22;28063;48.140;11.588;2022-07-21T10:06:19;22.60;94.80
42421;DHT22;28063;48.140;11.588;2022-07-21T10:08:45;22.70;94.80
42421;DHT22;28063;48.140;11.588;2022-07-21T10:11:11;22.50;95.50
42421;DHT22;28063;48.140;11.588;2022-07-21T10:13:38;22.30;96.30
42421;DHT22;28063;48.140;11.588;2022-07-21T10:16:08;22.10;97.70
42421;DHT22;28063;48.140;11.588;2022-07-21T10:18:58;21.90;99.20
42421;DHT22;28063;48.140;11.588;2022-07-21T10:24:29;21.30;99.90
42421;DHT22;28063;48.140;11.588;2022-07-21T10:27:06;21.30;99.90
42421;DHT22;28063;48.140;11.588;2022-07-21T10:32:24;21.10;99.90
42421;DHT22;28063;48.140;11.588;2022-07-21T10:34:57;21.10;99.90
42421;DHT22;28063;48.140;11.588;2022-07-21T10:42:45;21.30;99.90
42421;DHT22;28063;48.140;11.588;2022-07-21T10:45:30;21.30;99.90
42421;DHT22;28063;48.140;11.588;2022-07-21T10:47:56;21.20;99.90
42421;DHT22;28063;48.140;11.588;2022-07-21T10:50:41;21.20;99.90
42421;DHT22;28063;48.140;11.588;2022-07-21T10:53:17;21.40;99.90
42421;DHT22;28063;48.140;11.588;2022-07-21T10:55:52;21.50;99.90
42421;DHT22;28063;48.140;11.588;2022-07-21T11:01:06;22.00;99.90
42421;DHT22;28063;48.140;11.588;2022-07-21T11:03:37;22.10;99.90
42421;DHT22;28063;48.140;11.588;2022-07-21T11:08:35;22.30;99.90
42421;DHT22;28063;48.140;11.588;2022-07-21T11:11:14;22.70;99.90
42421;DHT22;28063;48.140;11.588;2022-07-21T11:14:18;23.00;99.80
42421;DHT22;28063;48.140;11.588;2022-07-21T11:19:48;23.60;97.90
42421;DHT22;28063;48.140;11.588;2022-07-21T11:22:28;23.70;96.50
42421;DHT22;28063;48.140;11.588;2022-07-21T11:24:59;23.70;96.00
42421;DHT22;28063;48.140;11.588;2022-07-21T11:27:27;23.70;95.60
42421;DHT22;28063;48.140;11.588;2022-07-21T11:29:55;23.70;95.60
42421;DHT22;28063;48.140;11.588;2022-07-21T11:32:22;23.60;95.30
42421;DHT22;28063;48.140;11.588;2022-07-21T11:34:59;23.60;95.20
42421;DHT22;28063;48.140;11.588;2022-07-21T11:37:37;23.60;95.00
42421;DHT22;28063;48.140;11.588;2022-07-21T11:40:15;23.50;94.30
42421;DHT22;28063;48.140;11.588;2022-07-21T11:42:43;23.30;94.50
42421;DHT22;28063;48.140;11.588;2022-07-21T11:45:10;23.20;95.30
42421;DHT22;28063;48.140;11.588;2022-07-21T11:47:36;23.10;95.00
42421;DHT22;28063;48.140;11.588;2022-07-21T11:50:06;23.10;95.30
42421;DHT22;28063;48.140;11.588;2022-07-21T11:52:34;23.10;95.70
42421;DHT22;28063;48.140;11.588;2022-07-21T11:55:02;23.20;95.40
42421;DHT22;28063;48.140;11.588;2022-07-21T11:57:28;23.30;94.80
42421;DHT22;28063;48.140;11.588;2022-07-21T11:59:55;23.40;94.80
42421;DHT22;28063;48.140;11.588;2022-07-21T12:02:30;23.50;94.80
42421;DHT22;28063;48.140;11.588;2022-07-21T12:05:03;23.60;94.60
42421;DHT22;28063;48.140;11.588;2022-07-21T12:07:40;23.70;94.30
42421;DHT22;28063;48.140;11.588;2022-07-21T12:10:12;23.80;93.80
42421;DHT22;28063;48.140;11.588;2022-07-21T12:12:42;23.80;93.40
42421;DHT22;28063;48.140;11.588;2022-07-21T12:17:51;23.90;92.80
42421;DHT22;28063;48.140;11.588;2022-07-21T12:20:27;24.00;92.50
42421;DHT22;28063;48.140;11.588;2022-07-21T12:22:54;24.00;91.40
42421;DHT22;28063;48.140;11.588;2022-07-21T12:27:56;24.10;92.20
42421;DHT22;28063;48.140;11.588;2022-07-21T12:33:06;24.30;91.00
42421;DHT22;28063;48.140;11.588;2022-07-21T12:35:33;24.40;90.30
42421;DHT22;28063;48.140;11.588;2022-07-21T12:40:30;24.60;89.90
42421;DHT22;28063;48.140;11.588;2022-07-21T12:43:18;24.70;88.80
42421;DHT22;28063;48.140;11.588;2022-07-21T12:48:19;25.00;87.40
42421;DHT22;28063;48.140;11.588;2022-07-21T12:51:05;25.00;86.90
42421;DHT22;28063;48.140;11.588;2022-07-21T12:53:37;24.90;87.60
42421;DHT22;28063;48.140;11.588;2022-07-21T12:56:03;25.00;86.90
42421;DHT22;28063;48.140;11.588;2022-07-21T12:58:29;25.10;86.80
42421;DHT22;28063;48.140;11.588;2022-07-21T13:00:55;25.30;86.50
42421;DHT22;28063;48.140;11.588;2022-07-21T13:03:21;25.30;85.00
42421;DHT22;28063;48.140;11.588;2022-07-21T13:05:46;25.40;84.60
42421;DHT22;28063;48.140;11.588;2022-07-21T13:08:12;25.50;83.60
42421;DHT22;28063;48.140;11.588;2022-07-21T13:10:38;25.60;82.80
42421;DHT22;28063;48.140;11.588;2022-07-21T13:13:04;25.70;82.50
42421;DHT22;28063;48.140;11.588;2022-07-21T13:15:30;25.90;81.80
42421;DHT22;28063;48.140;11.588;2022-07-21T13:17:55;26.00;80.60
42421;DHT22;28063;48.140;11.588;2022-07-21T13:20:21;26.00;79.70
42421;DHT22;28063;48.140;11.588;2022-07-21T13:22:46;26.10;79.40
42421;DHT22;28063;48.140;11.588;2022-07-21T13:25:13;26.10;78.20
42421;DHT22;28063;48.140;11.588;2022-07-21T13:27:39;25.90;77.70
42421;DHT22;28063;48.140;11.588;2022-07-21T13:30:06;25.60;77.20
42421;DHT22;28063;48.140;11.588;2022-07-21T13:32:36;25.20;78.80
42421;DHT22;28063;48.140;11.588;2022-07-21T13:35:05;25.00;80.30
42421;DHT22;28063;48.140;11.588;2022-07-21T13:37:31;24.90;81.20
42421;DHT22;28063;48.140;11.588;2022-07-21T13:39:57;25.00;81.40
42421;DHT22;28063;48.140;11.588;2022-07-21T13:42:23;25.20;81.20
42421;DHT22;28063;48.140;11.588;2022-07-21T13:44:48;25.20;80.40
42421;DHT22;28063;48.140;11.588;2022-07-21T13:47:14;25.10;80.20
42421;DHT22;28063;48.140;11.588;2022-07-21T13:49:40;25.00;80.70
42421;DHT22;28063;48.140;11.588;2022-07-21T13:52:07;25.00;81.00
42421;DHT22;28063;48.140;11.588;2022-07-21T13:54:33;25.10;80.70
42421;DHT22;28063;48.140;11.588;2022-07-21T13:59:34;25.10;80.30
42421;DHT22;28063;48.140;11.588;2022-07-21T14:02:00;25.00;80.10
42421;DHT22;28063;48.140;11.588;2022-07-21T14:04:26;25.00;80.00
42421;DHT22;28063;48.140;11.588;2022-07-21T14:06:52;25.20;79.20
42421;DHT22;28063;48.140;11.588;2022-07-21T14:09:19;25.30;78.60
42421;DHT22;28063;48.140;11.588;2022-07-21T14:11:45;25.30;78.20
42421;DHT22;28063;48.140;11.588;2022-07-21T14:14:11;25.60;77.60
42421;DHT22;28063;48.140;11.588;2022-07-21T14:16:45;25.80;75.50
42421;DHT22;28063;48.140;11.588;2022-07-21T14:19:12;25.90;75.00
42421;DHT22;28063;48.140;11.588;2022-07-21T14:21:40;26.00;74.70
42421;DHT22;28063;48.140;11.588;2022-07-21T14:24:09;26.20;74.20
42421;DHT22;28063;48.140;11.588;2022-07-21T14:26:53;26.40;73.50
42421;DHT22;28063;48.140;11.588;2022-07-21T14:29:19;26.70;72.90
42421;DHT22;28063;48.140;11.588;2022-07-21T14:31:45;27.00;71.60
42421;DHT22;28063;48.140;11.588;2022-07-21T14:34:10;27.10;70.80
42421;DHT22;28063;48.140;11.588;2022-07-21T14:36:39;27.50;70.40
42421;DHT22;28063;48.140;11.588;2022-07-21T14:39:05;27.80;69.40
42421;DHT22;28063;48.140;11.588;2022-07-21T14:41:30;27.90;67.80
42421;DHT22;28063;48.140;11.588;2022-07-21T14:43:56;27.80;67.60
42421;DHT22;28063;48.140;11.588;2022-07-21T14:46:24;27.70;68.10
42421;DHT22;28063;48.140;11.588;2022-07-21T14:48:50;27.90;67.50
42421;DHT22;28063;48.140;11.588;2022-07-21T14:51:16;27.90;66.60
42421;DHT22;28063;48.140;11.588;2022-07-21T14:53:44;27.80;67.10
42421;DHT22;28063;48.140;11.588;2022-07-21T14:56:10;28.00;67.20
42421;DHT22;28063;48.140;11.588;2022-07-21T14:58:35;28.30;66.90
42421;DHT22;28063;48.140;11.588;2022-07-21T15:01:01;28.20;67.60
42421;DHT22;28063;48.140;11.588;2022-07-21T15:03:29;28.30;67.10
42421;DHT22;28063;48.140;11.588;2022-07-21T15:05:56;28.50;65.80
42421;DHT22;28063;48.140;11.588;2022-07-21T15:08:26;28.90;64.50
42421;DHT22;28063;48.140;11.588;2022-07-21T15:10:58;29.30;63.50
42421;DHT22;28063;48.140;11.588;2022-07-21T15:13:24;29.50;62.10
42421;DHT22;28063;48.140;11.588;2022-07-21T15:15:53;29.50;61.00
42421;DHT22;28063;48.140;11.588;2022-07-21T15:18:19;29.40;61.40
42421;DHT22;28063;48.140;11.588;2022-07-21T15:20:45;29.10;61.30
42421;DHT22;28063;48.140;11.588;2022-07-21T15:23:12;28.90;62.10
42421;DHT22;28063;48.140;11.588;2022-07-21T15:25:38;28.80;62.50
42421;DHT22;28063;48.140;11.588;2022-07-21T15:28:04;28.60;63.00
42421;DHT22;28063;48.140;11.588;2022-07-21T15:30:32;28.40;63.30
42421;DHT22;28063;48.140;11.588;2022-07-21T15:32:58;28.30;63.00
42421;DHT22;28063;48.140;11.588;2022-07-21T15:35:24;28.10;63.20
42421;DHT22;28063;48.140;11.588;2022-07-21T15:37:50;27.90;63.90
42421;DHT22;28063;48.140;11.588;2022-07-21T15:40:16;27.80;64.10
42421;DHT22;28063;48.140;11.588;2022-07-21T15:42:42;27.70;64.20
42421;DHT22;28063;48.140;11.588;2022-07-21T15:45:13;27.70;64.40
42421;DHT22;28063;48.140;11.588;2022-07-21T15:47:39;27.60;63.80
42421;DHT22;28063;48.140;11.588;2022-07-21T15:50:17;27.40;64.30
42421;DHT22;28063;48.140;11.588;2022-07-21T15:53:05;27.30;63.90
42421;DHT22;28063;48.140;11.588;2022-07-21T15:55:32;27.20;63.90
42421;DHT22;28063;48.140;11.588;2022-07-21T15:58:00;27.10;64.60
42421;DHT22;28063;48.140;11.588;2022-07-21T16:00:28;27.10;65.60
42421;DHT22;28063;48.140;11.588;2022-07-21T16:03:12;27.00;66.10
42421;DHT22;28063;48.140;11.588;2022-07-21T16:05:41;27.00;66.90